createdAt,value
2018-09-06T00:02:26.457Z,74.30
2018-09-06T00:04:55.514Z,74.50
2018-09-06T00:07:24.577Z,75.50
2018-09-06T00:09:53.566Z,75.10
2018-09-06T00:12:22.530Z,75.20
2018-09-06T00:14:51.644Z,75.30
2018-09-06T00:17:20.642Z,76.30
2018-09-06T00:19:49.633Z,76.00
2018-09-06T00:22:18.598Z,75.90
2018-09-06T00:24:47.609Z,75.80
2018-09-06T00:27:16.701Z,76.30
2018-09-06T00:29:45.799Z,75.70
2018-09-06T00:32:14.686Z,75.80
2018-09-06T00:34:43.770Z,76.10
2018-09-06T00:37:12.879Z,76.20
2018-09-06T00:39:41.949Z,76.70
2018-09-06T00:42:11.053Z,76.20
2018-09-06T00:44:40.285Z,75.80
2018-09-06T00:47:09.582Z,75.70
2018-09-06T00:49:38.643Z,76.20
2018-09-06T00:52:07.731Z,75.60
2018-09-06T00:54:36.823Z,75.70
2018-09-06T00:57:05.867Z,75.70
2018-09-06T00:59:34.953Z,75.90
2018-09-06T01:02:03.933Z,75.90
2018-09-06T01:04:33.103Z,75.90
2018-09-06T01:07:02.175Z,76.00
2018-09-06T01:09:31.213Z,76.60
2018-09-06T01:12:00.318Z,76.70
2018-09-06T01:14:29.304Z,76.90
2018-09-06T01:16:58.284Z,76.20
2018-09-06T01:19:27.292Z,76.90
2018-09-06T01:21:56.374Z,76.50
2018-09-06T01:24:25.478Z,77.30
2018-09-06T01:26:54.558Z,77.30
2018-09-06T01:29:23.692Z,77.20
2018-09-06T01:31:52.740Z,77.10
2018-09-06T01:34:21.980Z,77.20
2018-09-06T01:36:51.081Z,77.00
2018-09-06T01:39:20.193Z,77.10
2018-09-06T01:41:49.217Z,77.10
2018-09-06T01:44:18.243Z,77.30
2018-09-06T01:46:47.345Z,76.90
2018-09-06T01:49:16.206Z,76.50
2018-09-06T01:51:45.223Z,77.30
2018-09-06T01:54:14.193Z,77.20
2018-09-06T01:56:43.157Z,77.30
2018-09-06T01:59:13.969Z,77.40
2018-09-06T02:01:43.460Z,77.50
2018-09-06T02:04:12.500Z,77.60
2018-09-06T02:06:41.520Z,77.70
2018-09-06T02:09:10.667Z,78.10
2018-09-06T02:11:40.929Z,77.60
2018-09-06T02:14:10.128Z,77.70
2018-09-06T02:16:39.322Z,77.80
2018-09-06T02:19:08.500Z,77.80
2018-09-06T02:21:37.680Z,77.70
2018-09-06T02:24:06.929Z,77.80
2018-09-06T02:26:36.020Z,77.80
2018-09-06T02:29:05.227Z,77.90
2018-09-06T02:31:34.289Z,77.70
2018-09-06T02:34:03.377Z,78.00
2018-09-06T02:36:32.447Z,78.10
2018-09-06T02:39:01.561Z,78.20
2018-09-06T02:41:30.552Z,78.50
2018-09-06T02:43:59.686Z,78.30
2018-09-06T02:46:28.776Z,78.40
2018-09-06T02:48:57.767Z,78.60
2018-09-06T02:51:26.766Z,78.40
2018-09-06T02:53:55.868Z,78.60
2018-09-06T02:56:24.839Z,79.10
2018-09-06T02:58:54.048Z,79.30
2018-09-06T03:01:23.175Z,80.00
2018-09-06T03:03:52.216Z,79.70
2018-09-06T03:06:21.238Z,79.60
2018-09-06T03:08:50.215Z,79.80
2018-09-06T03:11:22.920Z,79.30
2018-09-06T03:13:52.569Z,79.10
2018-09-06T03:16:21.761Z,78.90
2018-09-06T03:18:51.202Z,79.50
2018-09-06T03:21:20.592Z,80.00
2018-09-06T03:23:49.828Z,80.10
2018-09-06T03:26:19.888Z,80.00
2018-09-06T03:28:50.081Z,79.70
2018-09-06T03:31:19.245Z,80.00
2018-09-06T03:33:48.217Z,80.50
2018-09-06T03:36:17.221Z,81.00
2018-09-06T03:38:46.414Z,81.00
2018-09-06T03:41:15.404Z,80.10
2018-09-06T03:43:44.775Z,80.40
2018-09-06T03:46:13.878Z,81.00
2018-09-06T03:48:42.922Z,79.80
2018-09-06T03:51:12.116Z,80.40
2018-09-06T03:53:41.383Z,80.60
2018-09-06T03:56:10.496Z,80.50
2018-09-06T03:58:39.620Z,80.80
2018-09-06T04:01:08.633Z,80.70
2018-09-06T04:03:37.795Z,80.20
2018-09-06T04:06:06.860Z,81.10
2018-09-06T04:08:35.980Z,81.10
2018-09-06T04:11:05.050Z,80.60
2018-09-06T04:13:34.128Z,80.70
2018-09-06T04:16:03.287Z,81.50
2018-09-06T04:18:32.380Z,81.50
2018-09-06T04:21:01.318Z,81.30
2018-09-06T04:23:30.492Z,81.30
2018-09-06T04:25:59.792Z,81.20
2018-09-06T04:28:29.024Z,81.60
2018-09-06T04:30:58.174Z,82.30
2018-09-06T04:33:27.334Z,82.10
2018-09-06T04:35:56.430Z,82.30
2018-09-06T04:38:25.598Z,82.10
2018-09-06T04:40:54.816Z,81.80
2018-09-06T04:43:24.009Z,82.00
2018-09-06T04:45:52.938Z,81.60
2018-09-06T04:48:22.087Z,81.80
2018-09-06T04:50:51.297Z,82.40
2018-09-06T04:53:20.391Z,82.70
2018-09-06T04:55:49.492Z,83.10
2018-09-06T04:58:18.581Z,82.60
2018-09-06T05:00:47.871Z,82.30
2018-09-06T05:03:16.979Z,81.90
2018-09-06T05:05:47.088Z,82.70
2018-09-06T05:08:16.213Z,82.90
2018-09-06T05:10:45.278Z,82.60
2018-09-06T05:13:14.383Z,82.80
2018-09-06T05:15:43.552Z,83.00
2018-09-06T05:18:12.739Z,82.70
2018-09-06T05:20:42.136Z,82.90
2018-09-06T05:23:11.264Z,82.80
2018-09-06T05:25:40.293Z,83.10
2018-09-06T05:28:09.512Z,82.80
2018-09-06T05:30:39.195Z,82.70
2018-09-06T05:33:08.164Z,83.10
2018-09-06T05:35:37.128Z,83.40
2018-09-06T05:38:06.133Z,83.90
2018-09-06T05:40:35.135Z,83.10
2018-09-06T05:43:04.349Z,84.20
2018-09-06T05:45:33.311Z,83.20
2018-09-06T05:48:02.416Z,83.70
2018-09-06T05:50:31.917Z,85.30
2018-09-06T05:53:02.106Z,85.10
2018-09-06T05:55:31.858Z,85.90
2018-09-06T05:58:00.940Z,85.80
2018-09-06T06:00:35.224Z,87.00
2018-09-06T06:03:06.120Z,86.80
2018-09-06T06:05:35.189Z,88.20
2018-09-06T06:08:15.146Z,86.80
2018-09-06T06:10:44.193Z,87.70
2018-09-06T06:13:13.237Z,87.00
2018-09-06T06:15:42.328Z,87.60
2018-09-06T06:18:11.415Z,89.10
2018-09-06T06:20:40.723Z,88.70
2018-09-06T06:23:12.616Z,89.50
2018-09-06T06:25:41.884Z,88.30
2018-09-06T06:28:11.125Z,89.10
2018-09-06T06:30:40.179Z,89.50
2018-09-06T06:33:09.170Z,88.40
2018-09-06T06:35:38.356Z,89.70
2018-09-06T06:38:07.440Z,89.20
2018-09-06T06:40:36.685Z,88.60
2018-09-06T06:43:05.701Z,89.00
2018-09-06T06:45:34.845Z,89.20
2018-09-06T06:48:03.806Z,89.50
2018-09-06T06:50:33.047Z,89.50
2018-09-06T06:53:02.152Z,90.10
2018-09-06T06:55:31.325Z,89.70
2018-09-06T06:58:00.416Z,90.00
2018-09-06T07:00:29.687Z,90.00
2018-09-06T07:02:58.816Z,90.10
2018-09-06T07:05:27.851Z,89.20
2018-09-06T07:07:56.891Z,89.80
2018-09-06T07:10:26.004Z,89.90
2018-09-06T07:12:55.104Z,89.60
2018-09-06T07:15:24.180Z,89.60
2018-09-06T07:17:53.303Z,89.80
2018-09-06T07:20:22.368Z,90.20
2018-09-06T07:22:51.575Z,90.10
2018-09-06T07:25:20.968Z,89.30
2018-09-06T07:27:50.047Z,90.00
2018-09-06T07:30:19.196Z,89.10
2018-09-06T07:32:48.238Z,89.50
2018-09-06T07:35:17.415Z,89.50
2018-09-06T07:37:46.362Z,89.70
2018-09-06T07:40:15.562Z,90.00
2018-09-06T07:42:44.676Z,89.80
2018-09-06T07:45:13.940Z,89.10
2018-09-06T07:47:43.068Z,88.50
2018-09-06T07:50:12.299Z,89.00
2018-09-06T07:52:41.419Z,88.50
2018-09-06T07:55:10.541Z,89.10
2018-09-06T07:57:39.694Z,88.40
2018-09-06T08:00:08.868Z,87.80
2018-09-06T08:02:38.040Z,88.00
2018-09-06T08:05:07.236Z,87.70
2018-09-06T08:07:37.255Z,87.70
2018-09-06T08:10:06.729Z,87.50
2018-09-06T08:12:35.841Z,87.60
2018-09-06T08:15:05.328Z,87.90
2018-09-06T08:17:34.360Z,87.00
2018-09-06T08:20:03.601Z,85.70
2018-09-06T08:22:32.727Z,85.20
2018-09-06T08:25:01.718Z,84.40
2018-09-06T08:27:30.705Z,84.00
2018-09-06T08:29:59.795Z,84.70
2018-09-06T08:32:28.907Z,84.60
2018-09-06T08:34:58.041Z,84.20
2018-09-06T08:37:27.174Z,83.70
2018-09-06T08:39:56.377Z,82.20
2018-09-06T08:42:25.564Z,81.80
2018-09-06T08:44:54.687Z,80.50
2018-09-06T08:47:23.879Z,80.70
2018-09-06T08:49:52.955Z,81.50
2018-09-06T08:52:22.136Z,81.90
2018-09-06T08:54:51.140Z,82.30
2018-09-06T08:57:20.310Z,83.80
2018-09-06T08:59:49.453Z,83.80
2018-09-06T09:02:18.553Z,83.30
2018-09-06T09:04:47.717Z,83.60
2018-09-06T09:07:16.843Z,84.20
2018-09-06T09:09:45.935Z,83.60
2018-09-06T09:12:15.210Z,84.30
2018-09-06T09:14:44.437Z,83.70
2018-09-06T09:17:13.600Z,83.30
2018-09-06T09:19:42.719Z,83.60
2018-09-06T09:22:12.454Z,83.30
2018-09-06T09:24:41.630Z,82.40
2018-09-06T09:27:10.804Z,82.70
2018-09-06T09:29:40.036Z,82.40
2018-09-06T09:32:09.221Z,83.00
2018-09-06T09:34:38.537Z,83.20
2018-09-06T09:37:07.820Z,83.60
2018-09-06T09:39:37.112Z,82.70
2018-09-06T09:42:06.497Z,82.30
2018-09-06T09:44:35.745Z,83.40
2018-09-06T09:49:33.279Z,80.30
2018-09-06T09:52:02.397Z,82.70
2018-09-06T09:54:32.588Z,82.00
2018-09-06T09:57:01.700Z,80.60
2018-09-06T09:59:30.836Z,80.10
2018-09-06T10:02:04.962Z,79.80
2018-09-06T10:04:39.332Z,79.30
2018-09-06T10:07:13.832Z,80.40
2018-09-06T10:11:25.305Z,80.10
2018-09-06T10:14:51.756Z,81.10
2018-09-06T10:17:21.009Z,78.90
2018-09-06T10:19:50.044Z,78.50
2018-09-06T10:22:19.260Z,76.90
2018-09-06T10:24:48.389Z,76.50
2018-09-06T10:27:18.360Z,77.70
2018-09-06T10:29:47.504Z,77.40
2018-09-06T10:32:16.675Z,77.40
2018-09-06T10:34:45.861Z,77.30
2018-09-06T10:37:14.983Z,77.50
2018-09-06T10:39:44.258Z,77.10
2018-09-06T10:42:13.560Z,77.30
2018-09-06T10:44:42.799Z,77.30
2018-09-06T10:47:11.956Z,76.00
2018-09-06T10:49:41.038Z,76.20
2018-09-06T10:52:10.250Z,76.70
2018-09-06T10:54:39.432Z,75.20
2018-09-06T10:57:36.900Z,75.90
2018-09-06T11:00:06.495Z,77.00
2018-09-06T11:02:35.831Z,75.80
2018-09-06T11:05:05.053Z,74.60
2018-09-06T11:07:34.408Z,74.50
2018-09-06T11:10:03.713Z,75.50
2018-09-06T11:12:32.712Z,75.10
2018-09-06T11:15:01.743Z,76.40
2018-09-06T11:17:30.805Z,74.80
2018-09-06T11:19:59.815Z,73.20
2018-09-06T11:22:29.021Z,73.70
2018-09-06T11:24:58.039Z,73.20
2018-09-06T11:27:27.253Z,72.50
2018-09-06T11:29:56.479Z,72.70
2018-09-06T11:32:25.867Z,71.90
2018-09-06T11:34:54.684Z,72.00
2018-09-06T11:37:23.740Z,70.80
2018-09-06T11:39:53.018Z,71.20
2018-09-06T11:42:21.856Z,70.60
2018-09-06T11:44:50.853Z,71.80
2018-09-06T11:47:19.946Z,70.90
2018-09-06T11:49:48.817Z,71.30
2018-09-06T11:52:17.791Z,70.70
2018-09-06T11:54:46.623Z,70.10
2018-09-06T11:57:15.533Z,70.00
2018-09-06T11:59:44.711Z,69.10
2018-09-06T12:02:14.082Z,68.50
2018-09-06T12:04:43.312Z,66.90
2018-09-06T12:07:12.816Z,67.20
2018-09-06T12:09:42.002Z,66.50
2018-09-06T12:12:11.038Z,66.70
2018-09-06T12:14:39.941Z,68.00
2018-09-06T12:17:09.305Z,67.10
2018-09-06T12:19:38.603Z,65.90
2018-09-06T12:22:07.679Z,65.80
2018-09-06T12:24:36.778Z,65.90
2018-09-06T12:27:05.915Z,65.20
2018-09-06T12:29:35.096Z,64.80
2018-09-06T12:32:04.248Z,64.20
2018-09-06T12:34:33.539Z,64.70
2018-09-06T12:37:02.852Z,65.60
2018-09-06T12:39:31.808Z,65.50
2018-09-06T12:42:01.068Z,66.20
2018-09-06T12:44:30.348Z,64.30
2018-09-06T12:46:59.750Z,64.80
2018-09-06T12:49:28.997Z,64.70
2018-09-06T12:51:58.268Z,64.20
2018-09-06T12:54:27.466Z,64.80
2018-09-06T12:56:56.353Z,64.40
2018-09-06T12:59:25.573Z,64.90
2018-09-06T13:01:54.441Z,64.10
2018-09-06T13:04:23.603Z,64.20
2018-09-06T13:06:52.636Z,63.50
2018-09-06T13:09:21.901Z,62.00
2018-09-06T13:11:52.725Z,61.40
2018-09-06T13:14:22.166Z,61.50
2018-09-06T13:16:51.384Z,62.10
2018-09-06T13:19:20.651Z,61.50
2018-09-06T13:21:49.736Z,61.10
2018-09-06T13:24:18.822Z,61.50
2018-09-06T13:26:48.167Z,62.20
2018-09-06T13:29:17.334Z,62.10
2018-09-06T13:31:46.342Z,62.10
2018-09-06T13:34:15.528Z,62.60
2018-09-06T13:36:44.590Z,62.30
2018-09-06T13:39:14.173Z,62.60
2018-09-06T13:41:43.056Z,62.80
2018-09-06T13:44:14.464Z,62.80
2018-09-06T13:46:45.601Z,61.60
2018-09-06T13:49:14.687Z,62.30
2018-09-06T13:51:43.689Z,61.40
2018-09-06T13:54:12.694Z,62.10
2018-09-06T13:56:41.552Z,62.20
2018-09-06T13:59:10.880Z,62.60
2018-09-06T14:01:40.066Z,62.30
2018-09-06T14:04:09.141Z,62.50
2018-09-06T14:06:38.246Z,62.90
2018-09-06T14:09:07.764Z,63.00
2018-09-06T14:11:37.026Z,63.00
2018-09-06T14:14:06.487Z,63.00
2018-09-06T14:16:35.337Z,61.70
2018-09-06T14:19:04.189Z,62.50
2018-09-06T14:21:33.012Z,62.80
2018-09-06T14:24:01.954Z,62.10
2018-09-06T14:26:30.772Z,60.90
2018-09-06T14:28:59.594Z,60.70
2018-09-06T14:31:28.615Z,61.30
2018-09-06T14:33:57.444Z,62.30
2018-09-06T14:36:26.566Z,64.40
2018-09-06T14:53:15.572Z,67.60
2018-09-06T14:55:44.650Z,69.10
2018-09-06T15:15:55.639Z,69.10
2018-09-06T15:18:24.436Z,73.10
2018-09-06T15:20:53.249Z,74.00
2018-09-06T15:23:22.104Z,74.70
2018-09-06T15:25:51.277Z,74.80
2018-09-06T15:28:20.384Z,73.10
2018-09-06T15:30:49.459Z,72.70
2018-09-06T15:36:11.244Z,73.60
2018-09-06T15:38:43.754Z,73.10
2018-09-06T15:41:13.895Z,72.70
2018-09-06T15:43:44.190Z,71.90
2018-09-06T15:47:38.451Z,72.40
2018-09-06T15:50:08.016Z,71.60
2018-09-06T15:52:38.218Z,72.00
2018-09-06T15:55:07.836Z,72.60
2018-09-06T15:57:37.255Z,72.60
2018-09-06T16:00:06.668Z,72.60
2018-09-06T16:02:35.504Z,72.50
2018-09-06T16:05:04.598Z,73.00
2018-09-06T16:07:33.635Z,72.30
2018-09-06T16:10:02.779Z,72.00
2018-09-06T16:12:31.858Z,72.60
2018-09-06T16:15:00.946Z,72.80
2018-09-06T16:17:30.064Z,73.10
2018-09-06T16:19:59.312Z,74.00
2018-09-06T16:22:28.433Z,74.90
2018-09-06T16:24:57.526Z,75.70
2018-09-06T16:27:26.621Z,75.10
2018-09-06T16:29:55.825Z,74.40
2018-09-06T16:32:25.135Z,74.10
2018-09-06T16:34:54.328Z,73.90
2018-09-06T16:37:23.408Z,73.90
2018-09-06T16:39:52.396Z,74.00
2018-09-06T16:42:21.523Z,73.80
2018-09-06T16:44:50.577Z,73.80
2018-09-06T16:47:19.704Z,74.70
2018-09-06T16:49:48.784Z,75.70
2018-09-06T16:52:17.901Z,75.00
2018-09-06T16:54:46.758Z,75.10
2018-09-06T16:57:15.851Z,75.20
2018-09-06T16:59:44.957Z,76.00
2018-09-06T17:02:13.972Z,75.60
2018-09-06T17:04:42.973Z,75.60
2018-09-06T17:07:11.996Z,75.80
2018-09-06T17:09:41.021Z,75.70
2018-09-06T17:12:10.027Z,77.10
2018-09-06T17:14:39.045Z,77.40
2018-09-06T17:17:08.116Z,77.70
2018-09-06T17:19:37.204Z,78.30
2018-09-06T17:22:06.075Z,78.40
2018-09-06T17:24:35.100Z,78.20
2018-09-06T17:27:04.284Z,78.50
2018-09-06T17:29:33.498Z,78.50
2018-09-06T17:32:02.683Z,78.70
2018-09-06T17:34:31.873Z,78.70
2018-09-06T17:37:00.840Z,79.40
2018-09-06T17:39:29.919Z,78.90
2018-09-06T17:41:59.061Z,78.40
2018-09-06T17:44:28.172Z,79.10
2018-09-06T17:46:57.176Z,79.70
2018-09-06T17:49:29.170Z,79.30
2018-09-06T17:51:58.413Z,78.80
2018-09-06T17:54:27.624Z,78.50
2018-09-06T17:56:56.729Z,79.10
2018-09-06T17:59:25.604Z,79.70
2018-09-06T18:01:54.865Z,79.80
2018-09-06T18:04:23.740Z,79.70
2018-09-06T18:06:53.243Z,79.20
2018-09-06T18:09:22.134Z,78.90
2018-09-06T18:11:51.285Z,79.20
2018-09-06T18:14:20.106Z,79.30
2018-09-06T18:16:49.534Z,79.20
2018-09-06T18:19:18.742Z,79.70
2018-09-06T18:21:47.886Z,79.40
2018-09-06T18:24:16.844Z,79.50
2018-09-06T18:26:45.950Z,79.80
2018-09-06T18:29:15.054Z,79.80
2018-09-06T18:31:44.332Z,79.50
2018-09-06T18:34:13.560Z,80.30
2018-09-06T18:36:42.656Z,80.30
2018-09-06T18:39:12.011Z,80.50
2018-09-06T18:41:41.250Z,79.90
2018-09-06T18:44:10.472Z,80.30
2018-09-06T18:46:39.744Z,80.40
2018-09-06T18:49:08.710Z,80.00
2018-09-06T18:51:37.809Z,80.80
2018-09-06T18:54:07.026Z,81.10
2018-09-06T18:56:36.214Z,81.50
2018-09-06T18:59:05.434Z,81.30
2018-09-06T19:01:34.242Z,81.50
2018-09-06T19:04:03.379Z,82.10
2018-09-06T19:06:32.499Z,81.70
2018-09-06T19:09:01.719Z,80.80
2018-09-06T19:11:31.428Z,81.50
2018-09-06T19:14:00.236Z,81.30
2018-09-06T19:16:29.216Z,80.90
2018-09-06T19:18:58.384Z,81.20
2018-09-06T19:21:27.458Z,81.60
2018-09-06T19:23:56.404Z,81.70
2018-09-06T19:26:25.939Z,81.40
2018-09-06T19:28:54.984Z,80.90
2018-09-06T19:31:24.157Z,80.80
2018-09-06T19:33:53.533Z,81.20
2018-09-06T19:36:22.662Z,81.50
2018-09-06T19:38:51.827Z,81.20
2018-09-06T19:41:20.772Z,80.90
2018-09-06T19:43:50.078Z,80.40
2018-09-06T19:46:19.286Z,80.50
2018-09-06T19:48:48.395Z,80.50
2018-09-06T19:51:17.637Z,80.60
2018-09-06T19:53:46.826Z,80.60
2018-09-06T19:56:15.916Z,80.80
2018-09-06T19:58:45.021Z,80.80
2018-09-06T20:01:13.874Z,80.30
2018-09-06T20:03:43.097Z,80.80
2018-09-06T20:08:25.779Z,81.20
2018-09-06T20:10:54.642Z,81.60
2018-09-06T20:13:23.880Z,81.50
2018-09-06T20:15:52.687Z,81.80
2018-09-06T20:18:21.589Z,81.70
2018-09-06T20:20:50.418Z,81.60
2018-09-06T20:23:19.239Z,81.70
2018-09-06T20:25:48.337Z,81.70
2018-09-06T20:28:17.238Z,81.60
2018-09-06T20:30:46.043Z,82.00
2018-09-06T20:33:15.158Z,81.80
2018-09-06T20:35:44.096Z,81.80
2018-09-06T20:38:13.099Z,81.70
2018-09-06T20:40:42.302Z,82.00
2018-09-06T20:43:11.360Z,82.00
2018-09-06T20:45:40.565Z,82.20
2018-09-06T20:48:09.707Z,82.20
2018-09-06T20:50:38.684Z,82.40
2018-09-06T20:53:08.040Z,82.30
2018-09-06T20:55:37.386Z,82.60
2018-09-06T20:58:06.412Z,82.50
2018-09-06T21:00:35.584Z,82.30
2018-09-06T21:03:04.808Z,82.60
2018-09-06T21:05:33.864Z,82.60
2018-09-06T21:08:02.987Z,83.20
2018-09-06T21:10:32.104Z,83.60
2018-09-06T21:13:01.276Z,83.70
2018-09-06T21:15:30.364Z,83.70
2018-09-06T21:17:59.348Z,84.00
2018-09-06T21:20:28.159Z,83.20
2018-09-06T21:22:57.144Z,84.20
2018-09-06T21:25:26.125Z,84.40
2018-09-06T21:27:55.423Z,84.00
2018-09-06T21:30:24.638Z,84.10
2018-09-06T21:32:53.604Z,84.40
2018-09-06T21:35:22.761Z,84.10
2018-09-06T21:37:51.848Z,84.80
2018-09-06T21:40:20.985Z,84.40
2018-09-06T21:42:50.054Z,84.10
2018-09-06T21:45:18.888Z,84.40
2018-09-06T21:47:47.999Z,84.80
2018-09-06T21:50:16.970Z,84.50
2018-09-06T21:52:45.954Z,84.80
2018-09-06T21:55:15.060Z,85.20
2018-09-06T21:57:44.244Z,85.10
2018-09-06T22:00:13.104Z,85.60
2018-09-06T22:02:47.581Z,85.30
2018-09-06T22:05:16.620Z,85.70
2018-09-06T22:07:45.667Z,85.60
2018-09-06T22:10:14.588Z,85.90
2018-09-06T22:12:43.626Z,85.40
2018-09-06T22:15:12.838Z,85.10
2018-09-06T22:17:41.645Z,85.00
2018-09-06T22:20:10.816Z,85.30
2018-09-06T22:22:40.009Z,85.00
2018-09-06T22:25:09.201Z,85.60
2018-09-06T22:27:38.208Z,86.30
2018-09-06T22:30:07.531Z,86.20
2018-09-06T22:32:36.697Z,86.00
2018-09-06T22:35:05.864Z,86.70
2018-09-06T22:37:34.916Z,86.80
2018-09-06T22:40:04.288Z,86.10
2018-09-06T22:42:33.297Z,86.00
2018-09-06T22:45:02.080Z,86.60
2018-09-06T22:47:30.933Z,86.90
2018-09-06T22:50:00.078Z,86.70
2018-09-06T22:52:29.166Z,86.60
2018-09-06T22:54:58.301Z,87.00
2018-09-06T22:57:27.251Z,87.10
2018-09-06T22:59:56.248Z,87.00
2018-09-06T23:02:29.481Z,87.10
2018-09-06T23:04:58.271Z,87.00
2018-09-06T23:07:27.509Z,86.30
2018-09-06T23:09:56.497Z,86.50
2018-09-06T23:12:25.451Z,86.80
2018-09-06T23:14:54.430Z,85.70
2018-09-06T23:17:23.364Z,85.40
2018-09-06T23:19:52.368Z,85.30
2018-09-06T23:22:21.649Z,85.50
2018-09-06T23:24:50.916Z,85.70
2018-09-06T23:27:20.056Z,85.70
2018-09-06T23:29:48.876Z,85.50
2018-09-06T23:32:17.937Z,85.40
2018-09-06T23:34:47.050Z,85.60
2018-09-06T23:37:16.196Z,85.40
2018-09-06T23:39:45.428Z,85.70
2018-09-06T23:42:14.408Z,85.70
2018-09-06T23:44:43.433Z,85.70
2018-09-06T23:47:12.409Z,86.20
2018-09-06T23:49:41.639Z,86.70
2018-09-06T23:52:10.812Z,86.00
2018-09-06T23:54:39.905Z,85.80
2018-09-06T23:57:08.980Z,86.10
2018-09-06T23:59:38.109Z,85.10
